sensor_id;sensor_type;location;lat;lon;timestamp;pressure;altitude;pressure_sealevel;temperature;humidity
8039;BME280;4062;49.844;8.120;2023-10-31T00:01:11;97622.16;;;15.99;58.92
8039;BME280;4062;49.844;8.120;2023-10-31T00:03:14;97621.34;;;15.99;58.76
8039;BME280;4062;49.844;8.120;2023-10-31T00:05:15;97631.03;;;16.00;58.65
8039;BME280;4062;49.844;8.120;2023-10-31T00:07:17;97628.38;;;16.00;58.86
8039;BME280;4062;49.844;8.120;2023-10-31T00:09:18;97630.16;;;15.99;58.63
8039;BME280;4062;49.844;8.120;2023-10-31T00:11:19;97628.38;;;16.00;58.85
8039;BME280;4062;49.844;8.120;2023-10-31T00:13:21;97628.38;;;16.00;58.69
8039;BME280;4062;49.844;8.120;2023-10-31T00:15:22;97625.69;;;16.00;58.76
8039;BME280;4062;49.844;8.120;2023-10-31T00:17:25;97622.16;;;15.99;58.82
8039;BME280;4062;49.844;8.120;2023-10-31T00:19:27;97623.03;;;16.00;58.49
8039;BME280;4062;49.844;8.120;2023-10-31T00:21:28;97620.38;;;16.00;58.78
8039;BME280;4062;49.844;8.120;2023-10-31T00:23:29;97622.16;;;15.99;58.80
8039;BME280;4062;49.844;8.120;2023-10-31T00:25:31;97625.69;;;16.00;58.72
8039;BME280;4062;49.844;8.120;2023-10-31T00:27:32;97624.00;;;15.99;58.74
8039;BME280;4062;49.844;8.120;2023-10-31T00:29:33;97624.84;;;15.99;58.74
8039;BME280;4062;49.844;8.120;2023-10-31T00:31:34;97619.50;;;15.99;58.88
8039;BME280;4062;49.844;8.120;2023-10-31T00:33:36;97620.38;;;16.00;58.81
8039;BME280;4062;49.844;8.120;2023-10-31T00:35:38;97619.50;;;15.99;58.72
8039;BME280;4062;49.844;8.120;2023-10-31T00:37:39;97625.69;;;16.00;58.91
8039;BME280;4062;49.844;8.120;2023-10-31T00:39:41;97629.31;;;15.99;58.69
8039;BME280;4062;49.844;8.120;2023-10-31T00:41:45;97628.38;;;16.00;58.78
8039;BME280;4062;49.844;8.120;2023-10-31T00:43:47;97627.50;;;15.99;58.81
8039;BME280;4062;49.844;8.120;2023-10-31T00:45:48;97628.38;;;16.00;58.71
8039;BME280;4062;49.844;8.120;2023-10-31T00:47:50;97631.88;;;16.00;58.71
8039;BME280;4062;49.844;8.120;2023-10-31T00:49:51;97628.38;;;16.00;58.82
8039;BME280;4062;49.844;8.120;2023-10-31T00:51:54;97630.16;;;15.99;58.93
8039;BME280;4062;49.844;8.120;2023-10-31T00:53:55;97629.19;;;16.00;58.65
8039;BME280;4062;49.844;8.120;2023-10-31T00:55:57;97623.03;;;16.00;58.79
8039;BME280;4062;49.844;8.120;2023-10-31T00:57:59;97618.69;;;15.99;58.94
8039;BME280;4062;49.844;8.120;2023-10-31T01:00:00;97626.66;;;15.99;58.86
8039;BME280;4062;49.844;8.120;2023-10-31T01:02:02;97624.84;;;15.99;58.77
8039;BME280;4062;49.844;8.120;2023-10-31T01:04:04;97623.03;;;16.00;58.67
8039;BME280;4062;49.844;8.120;2023-10-31T01:06:06;97620.38;;;16.00;58.69
8039;BME280;4062;49.844;8.120;2023-10-31T01:08:07;97620.38;;;16.00;58.87
8039;BME280;4062;49.844;8.120;2023-10-31T01:10:09;97629.19;;;16.00;58.88
8039;BME280;4062;49.844;8.120;2023-10-31T01:12:11;97634.53;;;16.00;58.72
8039;BME280;4062;49.844;8.120;2023-10-31T01:14:12;97640.81;;;15.99;58.70
8039;BME280;4062;49.844;8.120;2023-10-31T01:16:14;97655.00;;;16.00;58.76
8039;BME280;4062;49.844;8.120;2023-10-31T01:18:16;97660.34;;;16.00;58.75
8039;BME280;4062;49.844;8.120;2023-10-31T01:20:18;97655.84;;;16.00;58.81
8039;BME280;4062;49.844;8.120;2023-10-31T01:22:19;97660.34;;;16.00;58.80
8039;BME280;4062;49.844;8.120;2023-10-31T01:24:20;97656.81;;;15.99;58.93
8039;BME280;4062;49.844;8.120;2023-10-31T01:26:22;97657.66;;;16.00;58.80
8039;BME280;4062;49.844;8.120;2023-10-31T01:28:23;97660.34;;;16.00;58.85
8039;BME280;4062;49.844;8.120;2023-10-31T01:30:25;97670.97;;;16.00;58.86
8039;BME280;4062;49.844;8.120;2023-10-31T01:32:27;97674.47;;;16.00;58.69
8039;BME280;4062;49.844;8.120;2023-10-31T01:34:29;97676.31;;;16.00;58.82
8039;BME280;4062;49.844;8.120;2023-10-31T01:36:33;97665.66;;;16.00;58.68
8039;BME280;4062;49.844;8.120;2023-10-31T01:38:35;97671.81;;;16.00;58.67
8039;BME280;4062;49.844;8.120;2023-10-31T01:40:39;97664.78;;;15.99;58.86
8039;BME280;4062;49.844;8.120;2023-10-31T01:42:42;97664.66;;;16.01;58.77
8039;BME280;4062;49.844;8.120;2023-10-31T01:44:44;97664.78;;;15.99;58.75
8039;BME280;4062;49.844;8.120;2023-10-31T01:46:45;97665.66;;;16.00;58.69
8039;BME280;4062;49.844;8.120;2023-10-31T01:48:47;97673.66;;;16.00;58.83
8039;BME280;4062;49.844;8.120;2023-10-31T01:50:48;97676.31;;;16.00;58.69
8039;BME280;4062;49.844;8.120;2023-10-31T01:52:49;97676.31;;;16.00;58.78
8039;BME280;4062;49.844;8.120;2023-10-31T01:54:51;97675.44;;;15.99;58.70
8039;BME280;4062;49.844;8.120;2023-10-31T01:56:54;97678.09;;;15.99;58.66
8039;BME280;4062;49.844;8.120;2023-10-31T01:58:57;97682.59;;;15.99;58.88
8039;BME280;4062;49.844;8.120;2023-10-31T02:01:00;97688.75;;;15.99;58.79
8039;BME280;4062;49.844;8.120;2023-10-31T02:03:04;97693.13;;;16.00;58.72
8039;BME280;4062;49.844;8.120;2023-10-31T02:05:06;97684.31;;;16.00;59.02
8039;BME280;4062;49.844;8.120;2023-10-31T02:07:09;97690.59;;;15.99;58.88
8039;BME280;4062;49.844;8.120;2023-10-31T02:09:10;97686.09;;;15.99;58.92
8039;BME280;4062;49.844;8.120;2023-10-31T02:11:11;97693.13;;;16.00;58.78
8039;BME280;4062;49.844;8.120;2023-10-31T02:13:18;97686.09;;;15.99;58.67
8039;BME280;4062;49.844;8.120;2023-10-31T02:15:19;97688.75;;;15.99;58.76
8039;BME280;4062;49.844;8.120;2023-10-31T02:17:24;97691.44;;;15.99;58.62
8039;BME280;4062;49.844;8.120;2023-10-31T02:19:27;97696.75;;;15.99;58.90
8039;BME280;4062;49.844;8.120;2023-10-31T02:21:29;97691.44;;;15.99;58.92
8039;BME280;4062;49.844;8.120;2023-10-31T02:23:32;97697.63;;;16.00;58.93
8039;BME280;4062;49.844;8.120;2023-10-31T02:25:33;97700.28;;;16.00;58.91
8039;BME280;4062;49.844;8.120;2023-10-31T02:27:35;97690.59;;;15.99;58.69
8039;BME280;4062;49.844;8.120;2023-10-31T02:29:38;97699.41;;;15.99;58.81
8039;BME280;4062;49.844;8.120;2023-10-31T02:31:39;97699.41;;;15.99;58.68
8039;BME280;4062;49.844;8.120;2023-10-31T02:33:41;97702.94;;;16.00;58.93
8039;BME280;4062;49.844;8.120;2023-10-31T02:35:42;97700.28;;;16.00;58.80
8039;BME280;4062;49.844;8.120;2023-10-31T02:37:45;97709.25;;;15.99;58.76
8039;BME280;4062;49.844;8.120;2023-10-31T02:39:47;97703.91;;;15.99;58.74
8039;BME280;4062;49.844;8.120;2023-10-31T02:41:49;97707.41;;;15.99;58.85
8039;BME280;4062;49.844;8.120;2023-10-31T02:43:51;97706.56;;;15.99;58.93
8039;BME280;4062;49.844;8.120;2023-10-31T02:45:56;97705.63;;;16.00;58.78
8039;BME280;4062;49.844;8.120;2023-10-31T02:47:58;97710.06;;;15.99;58.90
8039;BME280;4062;49.844;8.120;2023-10-31T02:49:59;97703.78;;;16.00;58.80
8039;BME280;4062;49.844;8.120;2023-10-31T02:52:00;97709.25;;;15.99;58.94
8039;BME280;4062;49.844;8.120;2023-10-31T02:54:02;97709.25;;;15.99;58.86
8039;BME280;4062;49.844;8.120;2023-10-31T02:56:03;97707.41;;;15.99;58.90
8039;BME280;4062;49.844;8.120;2023-10-31T02:58:07;97711.91;;;15.99;58.81
8039;BME280;4062;49.844;8.120;2023-10-31T03:00:09;97710.94;;;16.00;58.67
8039;BME280;4062;49.844;8.120;2023-10-31T03:02:10;97719.88;;;15.99;58.96
8039;BME280;4062;49.844;8.120;2023-10-31T03:04:12;97722.56;;;15.99;58.79
8039;BME280;4062;49.844;8.120;2023-10-31T03:06:15;97730.44;;;16.00;58.93
8039;BME280;4062;49.844;8.120;2023-10-31T03:08:16;97728.72;;;15.99;58.76
8039;BME280;4062;49.844;8.120;2023-10-31T03:10:21;97733.09;;;16.00;58.75
8039;BME280;4062;49.844;8.120;2023-10-31T03:12:22;97729.69;;;15.98;58.92
8039;BME280;4062;49.844;8.120;2023-10-31T03:14:25;97731.38;;;15.99;58.76
8039;BME280;4062;49.844;8.120;2023-10-31T03:16:26;97738.53;;;15.99;58.79
8039;BME280;4062;49.844;8.120;2023-10-31T03:18:28;97742.91;;;16.00;58.88
8039;BME280;4062;49.844;8.120;2023-10-31T03:20:30;97740.25;;;16.00;58.69
8039;BME280;4062;49.844;8.120;2023-10-31T03:22:32;97745.56;;;16.00;58.74
8039;BME280;4062;49.844;8.120;2023-10-31T03:24:33;97741.06;;;16.00;58.64
8039;BME280;4062;49.844;8.120;2023-10-31T03:26:34;97741.06;;;16.00;58.84
8039;BME280;4062;49.844;8.120;2023-10-31T03:28:38;97748.22;;;16.00;58.78
8039;BME280;4062;49.844;8.120;2023-10-31T03:30:40;97744.69;;;15.99;58.80
8039;BME280;4062;49.844;8.120;2023-10-31T03:32:41;97748.22;;;16.00;58.74
8039;BME280;4062;49.844;8.120;2023-10-31T03:34:43;97744.69;;;15.99;58.69
8039;BME280;4062;49.844;8.120;2023-10-31T03:36:45;97746.53;;;15.99;58.68
8039;BME280;4062;49.844;8.120;2023-10-31T03:38:47;97744.69;;;15.99;58.75
8039;BME280;4062;49.844;8.120;2023-10-31T03:40:48;97747.38;;;15.99;58.90
8039;BME280;4062;49.844;8.120;2023-10-31T03:42:49;97753.56;;;16.00;58.87
8039;BME280;4062;49.844;8.120;2023-10-31T03:44:51;97760.69;;;15.99;58.93
8039;BME280;4062;49.844;8.120;2023-10-31T03:46:52;97767.72;;;16.00;58.74
8039;BME280;4062;49.844;8.120;2023-10-31T03:48:54;97758.03;;;15.99;58.68
8039;BME280;4062;49.844;8.120;2023-10-31T03:50:55;97761.56;;;16.00;58.87
8039;BME280;4062;49.844;8.120;2023-10-31T03:52:56;97772.22;;;16.00;58.76
8039;BME280;4062;49.844;8.120;2023-10-31T03:54:57;97777.53;;;16.00;58.69
8039;BME280;4062;49.844;8.120;2023-10-31T03:56:59;97781.16;;;15.99;58.79
8039;BME280;4062;49.844;8.120;2023-10-31T03:59:01;97779.31;;;15.99;58.90
8039;BME280;4062;49.844;8.120;2023-10-31T04:01:02;97782.84;;;16.00;58.75
8039;BME280;4062;49.844;8.120;2023-10-31T04:03:03;97777.53;;;16.00;58.86
8039;BME280;4062;49.844;8.120;2023-10-31T04:05:05;97770.50;;;15.99;58.72
8039;BME280;4062;49.844;8.120;2023-10-31T04:07:06;97778.50;;;15.99;58.95
8039;BME280;4062;49.844;8.120;2023-10-31T04:09:09;97782.84;;;16.00;59.02
8039;BME280;4062;49.844;8.120;2023-10-31T04:11:11;97792.53;;;16.01;58.68
8039;BME280;4062;49.844;8.120;2023-10-31T04:13:13;97794.47;;;15.99;58.73
8039;BME280;4062;49.844;8.120;2023-10-31T04:15:14;97787.31;;;15.99;58.69
8039;BME280;4062;49.844;8.120;2023-10-31T04:17:15;97787.31;;;15.99;58.72
8039;BME280;4062;49.844;8.120;2023-10-31T04:19:16;97799.69;;;16.00;58.72
8039;BME280;4062;49.844;8.120;2023-10-31T04:21:18;97801.50;;;16.00;58.78
8039;BME280;4062;49.844;8.120;2023-10-31T04:23:19;97795.31;;;15.99;58.77
8039;BME280;4062;49.844;8.120;2023-10-31T04:25:20;97790.84;;;16.00;58.80
8039;BME280;4062;49.844;8.120;2023-10-31T04:27:22;97790.84;;;16.00;58.93
8039;BME280;4062;49.844;8.120;2023-10-31T04:29:23;97796.19;;;16.00;58.88
8039;BME280;4062;49.844;8.120;2023-10-31T04:31:25;97792.66;;;15.99;58.77
8039;BME280;4062;49.844;8.120;2023-10-31T04:33:26;97797.97;;;15.99;58.87
8039;BME280;4062;49.844;8.120;2023-10-31T04:35:27;97794.47;;;15.99;58.90
8039;BME280;4062;49.844;8.120;2023-10-31T04:37:28;97792.66;;;15.99;58.79
8039;BME280;4062;49.844;8.120;2023-10-31T04:39:30;97796.19;;;16.00;58.79
8039;BME280;4062;49.844;8.120;2023-10-31T04:41:31;97794.47;;;15.99;58.74
8039;BME280;4062;49.844;8.120;2023-10-31T04:43:34;97798.84;;;16.00;58.82
8039;BME280;4062;49.844;8.120;2023-10-31T04:45:35;97805.97;;;15.99;58.74
8039;BME280;4062;49.844;8.120;2023-10-31T04:47:36;97808.63;;;15.99;58.76
8039;BME280;4062;49.844;8.120;2023-10-31T04:49:38;97813.97;;;15.99;58.66
8039;BME280;4062;49.844;8.120;2023-10-31T04:51:39;97814.81;;;16.00;58.92
8039;BME280;4062;49.844;8.120;2023-10-31T04:53:40;97814.81;;;16.00;58.96
8039;BME280;4062;49.844;8.120;2023-10-31T04:55:42;97815.78;;;15.99;58.72
8039;BME280;4062;49.844;8.120;2023-10-31T04:57:43;97824.59;;;15.99;58.76
8039;BME280;4062;49.844;8.120;2023-10-31T04:59:44;97836.13;;;16.00;58.89
8039;BME280;4062;49.844;8.120;2023-10-31T05:01:49;97829.94;;;15.99;58.81
8039;BME280;4062;49.844;8.120;2023-10-31T05:03:52;97830.81;;;16.00;58.69
8039;BME280;4062;49.844;8.120;2023-10-31T05:05:54;97835.25;;;15.99;58.83
8039;BME280;4062;49.844;8.120;2023-10-31T05:07:55;97845.91;;;15.99;58.76
8039;BME280;4062;49.844;8.120;2023-10-31T05:09:57;97844.13;;;16.00;58.79
8039;BME280;4062;49.844;8.120;2023-10-31T05:11:58;97844.13;;;16.00;58.89
8039;BME280;4062;49.844;8.120;2023-10-31T05:14:00;97846.78;;;16.00;58.89
8039;BME280;4062;49.844;8.120;2023-10-31T05:16:01;97845.91;;;15.99;58.70
8039;BME280;4062;49.844;8.120;2023-10-31T05:18:02;97845.91;;;15.99;58.94
8039;BME280;4062;49.844;8.120;2023-10-31T05:20:04;97851.25;;;15.99;58.89
8039;BME280;4062;49.844;8.120;2023-10-31T05:22:05;97849.44;;;16.00;58.81
8039;BME280;4062;49.844;8.120;2023-10-31T05:24:07;97844.13;;;16.00;58.81
8039;BME280;4062;49.844;8.120;2023-10-31T05:26:08;97852.97;;;16.00;58.77
8039;BME280;4062;49.844;8.120;2023-10-31T05:28:10;97846.78;;;16.00;58.95
8039;BME280;4062;49.844;8.120;2023-10-31T05:30:13;97854.78;;;16.00;58.94
8039;BME280;4062;49.844;8.120;2023-10-31T05:32:16;97851.25;;;15.99;58.82
8039;BME280;4062;49.844;8.120;2023-10-31T05:34:17;97848.59;;;15.99;58.80
8039;BME280;4062;49.844;8.120;2023-10-31T05:36:19;97850.28;;;16.00;58.94
8039;BME280;4062;49.844;8.120;2023-10-31T05:38:21;97853.91;;;15.99;58.94
8039;BME280;4062;49.844;8.120;2023-10-31T05:40:22;97850.41;;;15.99;58.90
8039;BME280;4062;49.844;8.120;2023-10-31T05:42:26;97847.75;;;15.99;58.87
8039;BME280;4062;49.844;8.120;2023-10-31T05:44:28;97851.25;;;15.99;58.88
8039;BME280;4062;49.844;8.120;2023-10-31T05:46:30;97857.53;;;15.98;58.82
8039;BME280;4062;49.844;8.120;2023-10-31T05:48:39;97851.25;;;15.99;58.88
8039;BME280;4062;49.844;8.120;2023-10-31T05:50:42;97856.56;;;15.99;58.80
8039;BME280;4062;49.844;8.120;2023-10-31T05:52:46;97861.91;;;15.99;58.86
8039;BME280;4062;49.844;8.120;2023-10-31T05:54:50;97863.72;;;15.99;58.90
8039;BME280;4062;49.844;8.120;2023-10-31T05:56:51;97871.72;;;15.99;58.83
8039;BME280;4062;49.844;8.120;2023-10-31T05:58:53;97876.09;;;16.00;58.93
8039;BME280;4062;49.844;8.120;2023-10-31T06:00:54;97877.88;;;15.99;58.89
8039;BME280;4062;49.844;8.120;2023-10-31T06:02:55;97881.41;;;16.00;58.78
8039;BME280;4062;49.844;8.120;2023-10-31T06:04:57;97880.56;;;15.99;58.95
8039;BME280;4062;49.844;8.120;2023-10-31T06:06:58;97891.22;;;15.99;59.07
8039;BME280;4062;49.844;8.120;2023-10-31T06:08:59;97899.19;;;15.99;58.93
8039;BME280;4062;49.844;8.120;2023-10-31T06:11:02;97901.03;;;15.99;58.80
8039;BME280;4062;49.844;8.120;2023-10-31T06:13:04;97900.06;;;16.00;58.80
8039;BME280;4062;49.844;8.120;2023-10-31T06:15:06;97894.75;;;16.00;58.98
8039;BME280;4062;49.844;8.120;2023-10-31T06:17:07;97901.03;;;15.99;58.82
8039;BME280;4062;49.844;8.120;2023-10-31T06:19:09;97901.84;;;15.99;59.03
8039;BME280;4062;49.844;8.120;2023-10-31T06:21:10;97912.50;;;15.99;58.89
8039;BME280;4062;49.844;8.120;2023-10-31T06:23:12;97909.00;;;15.99;58.92
8039;BME280;4062;49.844;8.120;2023-10-31T06:25:13;97916.03;;;16.00;58.99
8039;BME280;4062;49.844;8.120;2023-10-31T06:27:14;97915.19;;;15.99;58.75
8039;BME280;4062;49.844;8.120;2023-10-31T06:29:16;97918.72;;;16.00;58.99
8039;BME280;4062;49.844;8.120;2023-10-31T06:31:17;97925.84;;;15.99;58.82
8039;BME280;4062;49.844;8.120;2023-10-31T06:33:19;97929.38;;;16.00;58.89
8039;BME280;4062;49.844;8.120;2023-10-31T06:35:20;97934.69;;;16.00;58.75
8039;BME280;4062;49.844;8.120;2023-10-31T06:37:22;97938.19;;;16.00;58.89
8039;BME280;4062;49.844;8.120;2023-10-31T06:39:23;97948.00;;;16.00;58.91
8039;BME280;4062;49.844;8.120;2023-10-31T06:41:25;97949.81;;;15.99;58.90
8039;BME280;4062;49.844;8.120;2023-10-31T06:43:26;97959.50;;;16.00;58.94
8039;BME280;4062;49.844;8.120;2023-10-31T06:45:28;97959.63;;;15.99;58.85
8039;BME280;4062;49.844;8.120;2023-10-31T06:47:30;97962.28;;;15.99;58.99
8039;BME280;4062;49.844;8.120;2023-10-31T06:49:32;97972.00;;;16.00;58.92
8039;BME280;4062;49.844;8.120;2023-10-31T06:51:33;97974.66;;;16.00;58.78
8039;BME280;4062;49.844;8.120;2023-10-31T06:53:34;97972.00;;;16.00;58.80
8039;BME280;4062;49.844;8.120;2023-10-31T06:55:35;97975.59;;;15.99;58.90
8039;BME280;4062;49.844;8.120;2023-10-31T06:57:37;97983.59;;;15.99;58.85
8039;BME280;4062;49.844;8.120;2023-10-31T06:59:38;97983.59;;;15.99;58.83
8039;BME280;4062;49.844;8.120;2023-10-31T07:01:40;97990.63;;;16.00;59.11
8039;BME280;4062;49.844;8.120;2023-10-31T07:03:41;97982.72;;;15.98;59.00
8039;BME280;4062;49.844;8.120;2023-10-31T07:05:43;97987.97;;;16.00;58.79
8039;BME280;4062;49.844;8.120;2023-10-31T07:07:48;97981.78;;;15.99;58.76
8039;BME280;4062;49.844;8.120;2023-10-31T07:09:51;97989.75;;;15.99;58.86
8039;BME280;4062;49.844;8.120;2023-10-31T07:11:54;97995.97;;;16.00;58.73
8039;BME280;4062;49.844;8.120;2023-10-31T07:13:57;97998.63;;;16.00;58.89
8039;BME280;4062;49.844;8.120;2023-10-31T07:15:59;97994.13;;;16.00;58.66
8039;BME280;4062;49.844;8.120;2023-10-31T07:18:01;98005.63;;;16.01;58.95
8039;BME280;4062;49.844;8.120;2023-10-31T07:20:03;98005.63;;;16.01;58.73
8039;BME280;4062;49.844;8.120;2023-10-31T07:22:04;98014.63;;;16.00;59.01
8039;BME280;4062;49.844;8.120;2023-10-31T07:24:06;98016.41;;;15.99;58.82
8039;BME280;4062;49.844;8.120;2023-10-31T07:26:10;98011.94;;;16.00;58.92
8039;BME280;4062;49.844;8.120;2023-10-31T07:28:11;98016.41;;;15.99;58.86
8039;BME280;4062;49.844;8.120;2023-10-31T07:30:12;98011.06;;;15.99;58.89
8039;BME280;4062;49.844;8.120;2023-10-31T07:32:14;98017.28;;;16.00;58.83
8039;BME280;4062;49.844;8.120;2023-10-31T07:34:18;98017.28;;;16.00;58.82
8039;BME280;4062;49.844;8.120;2023-10-31T07:36:20;98014.63;;;16.00;58.87
8039;BME280;4062;49.844;8.120;2023-10-31T07:38:21;98018.13;;;16.00;58.88
8039;BME280;4062;49.844;8.120;2023-10-31T07:40:23;98018.94;;;16.01;58.81
8039;BME280;4062;49.844;8.120;2023-10-31T07:42:24;98020.78;;;16.00;58.85
8039;BME280;4062;49.844;8.120;2023-10-31T07:44:25;98018.13;;;16.00;59.00
8039;BME280;4062;49.844;8.120;2023-10-31T07:46:26;98018.94;;;16.01;58.95
8039;BME280;4062;49.844;8.120;2023-10-31T07:48:28;98034.94;;;16.01;58.98
8039;BME280;4062;49.844;8.120;2023-10-31T07:50:32;98031.44;;;16.00;58.98
8039;BME280;4062;49.844;8.120;2023-10-31T07:52:34;98028.78;;;16.00;58.92
8039;BME280;4062;49.844;8.120;2023-10-31T07:54:39;98034.94;;;16.01;58.93
8039;BME280;4062;49.844;8.120;2023-10-31T07:56:43;98034.94;;;16.01;58.80
8039;BME280;4062;49.844;8.120;2023-10-31T07:58:45;98032.28;;;16.01;58.78
8039;BME280;4062;49.844;8.120;2023-10-31T08:00:46;98035.91;;;16.00;58.89
8039;BME280;4062;49.844;8.120;2023-10-31T08:02:48;98045.59;;;16.01;58.98
8039;BME280;4062;49.844;8.120;2023-10-31T08:04:49;98040.25;;;16.01;58.93
8039;BME280;4062;49.844;8.120;2023-10-31T08:06:51;98037.59;;;16.01;58.89
8039;BME280;4062;49.844;8.120;2023-10-31T08:08:52;98049.97;;;16.02;58.75
8039;BME280;4062;49.844;8.120;2023-10-31T08:10:53;98045.59;;;16.01;58.87
8039;BME280;4062;49.844;8.120;2023-10-31T08:12:55;98046.47;;;16.01;58.83
8039;BME280;4062;49.844;8.120;2023-10-31T08:14:56;98057.97;;;16.02;58.79
8039;BME280;4062;49.844;8.120;2023-10-31T08:16:57;98055.41;;;16.00;58.92
8039;BME280;4062;49.844;8.120;2023-10-31T08:18:59;98053.59;;;16.01;58.85
8039;BME280;4062;49.844;8.120;2023-10-31T08:21:02;98055.28;;;16.02;58.88
8039;BME280;4062;49.844;8.120;2023-10-31T08:23:03;98060.63;;;16.02;58.78
8039;BME280;4062;49.844;8.120;2023-10-31T08:25:05;98065.09;;;16.01;58.78
8039;BME280;4062;49.844;8.120;2023-10-31T08:27:07;98069.47;;;16.02;58.81
8039;BME280;4062;49.844;8.120;2023-10-31T08:29:09;98072.16;;;16.02;58.67
8039;BME280;4062;49.844;8.120;2023-10-31T08:31:10;98070.44;;;16.01;58.91
8039;BME280;4062;49.844;8.120;2023-10-31T08:33:11;98073.94;;;16.02;58.91
8039;BME280;4062;49.844;8.120;2023-10-31T08:35:13;98066.91;;;16.01;58.77
8039;BME280;4062;49.844;8.120;2023-10-31T08:37:14;98073.94;;;16.02;58.97
8039;BME280;4062;49.844;8.120;2023-10-31T08:39:16;98070.44;;;16.01;58.83
8039;BME280;4062;49.844;8.120;2023-10-31T08:41:18;98081.09;;;16.01;58.86
8039;BME280;4062;49.844;8.120;2023-10-31T08:43:21;98080.22;;;16.01;59.06
8039;BME280;4062;49.844;8.120;2023-10-31T08:45:22;98092.59;;;16.02;58.74
8039;BME280;4062;49.844;8.120;2023-10-31T08:47:23;98087.25;;;16.02;58.80
8039;BME280;4062;49.844;8.120;2023-10-31T08:49:25;98092.59;;;16.02;58.84
8039;BME280;4062;49.844;8.120;2023-10-31T08:51:26;98094.41;;;16.01;58.83
8039;BME280;4062;49.844;8.120;2023-10-31T08:53:28;98102.41;;;16.01;58.83
8039;BME280;4062;49.844;8.120;2023-10-31T08:55:29;98102.41;;;16.01;58.98
8039;BME280;4062;49.844;8.120;2023-10-31T08:57:31;98106.88;;;16.01;58.92
8039;BME280;4062;49.844;8.120;2023-10-31T08:59:32;98119.22;;;16.02;58.91
8039;BME280;4062;49.844;8.120;2023-10-31T09:01:34;98115.72;;;16.01;58.78
8039;BME280;4062;49.844;8.120;2023-10-31T09:03:35;98112.19;;;16.01;58.77
8039;BME280;4062;49.844;8.120;2023-10-31T09:05:37;98118.38;;;16.01;59.11
8039;BME280;4062;49.844;8.120;2023-10-31T09:07:38;98124.56;;;16.02;58.98
8039;BME280;4062;49.844;8.120;2023-10-31T09:09:39;98118.28;;;16.03;58.98
8039;BME280;4062;49.844;8.120;2023-10-31T09:11:41;98131.59;;;16.03;58.96
8039;BME280;4062;49.844;8.120;2023-10-31T09:13:42;98133.41;;;16.02;58.92
8039;BME280;4062;49.844;8.120;2023-10-31T09:15:43;98129.88;;;16.02;58.91
8039;BME280;4062;49.844;8.120;2023-10-31T09:17:46;98134.38;;;16.01;59.04
8039;BME280;4062;49.844;8.120;2023-10-31T09:19:48;98143.22;;;16.02;58.88
8039;BME280;4062;49.844;8.120;2023-10-31T09:21:49;98144.06;;;16.02;58.83
8039;BME280;4062;49.844;8.120;2023-10-31T09:23:51;98146.75;;;16.02;58.93
8039;BME280;4062;49.844;8.120;2023-10-31T09:25:52;98149.41;;;16.02;58.81
8039;BME280;4062;49.844;8.120;2023-10-31T09:27:54;98153.03;;;16.01;58.88
8039;BME280;4062;49.844;8.120;2023-10-31T09:29:55;98160.06;;;16.02;58.85
8039;BME280;4062;49.844;8.120;2023-10-31T09:31:57;98162.72;;;16.02;58.81
8039;BME280;4062;49.844;8.120;2023-10-31T09:33:58;98161.84;;;16.02;58.86
8039;BME280;4062;49.844;8.120;2023-10-31T09:35:59;98156.53;;;16.02;59.01
8039;BME280;4062;49.844;8.120;2023-10-31T09:38:01;98160.91;;;16.03;58.78
8039;BME280;4062;49.844;8.120;2023-10-31T09:40:02;98163.56;;;16.03;58.93
8039;BME280;4062;49.844;8.120;2023-10-31T09:42:04;98161.84;;;16.02;58.85
8039;BME280;4062;49.844;8.120;2023-10-31T09:44:06;98165.38;;;16.02;58.98
8039;BME280;4062;49.844;8.120;2023-10-31T09:46:08;98164.53;;;16.02;58.88
8039;BME280;4062;49.844;8.120;2023-10-31T09:48:11;98161.00;;;16.01;58.88
8039;BME280;4062;49.844;8.120;2023-10-31T09:50:12;98161.00;;;16.01;58.88
8039;BME280;4062;49.844;8.120;2023-10-31T09:52:14;98168.06;;;16.02;58.93
8039;BME280;4062;49.844;8.120;2023-10-31T09:54:17;98173.38;;;16.02;58.94
8039;BME280;4062;49.844;8.120;2023-10-31T09:56:19;98177.84;;;16.02;58.86
8039;BME280;4062;49.844;8.120;2023-10-31T09:58:21;98169.84;;;16.02;58.84
8039;BME280;4062;49.844;8.120;2023-10-31T10:00:22;98168.91;;;16.03;58.96
8039;BME280;4062;49.844;8.120;2023-10-31T10:02:24;98171.56;;;16.03;58.89
8039;BME280;4062;49.844;8.120;2023-10-31T10:04:26;98161.84;;;16.02;58.75
8039;BME280;4062;49.844;8.120;2023-10-31T10:06:27;98163.56;;;16.03;58.88
8039;BME280;4062;49.844;8.120;2023-10-31T10:08:29;98166.22;;;16.03;59.03
8039;BME280;4062;49.844;8.120;2023-10-31T10:10:30;98165.38;;;16.02;58.85
8039;BME280;4062;49.844;8.120;2023-10-31T10:12:32;98174.22;;;16.03;58.98
8039;BME280;4062;49.844;8.120;2023-10-31T10:14:34;98168.06;;;16.02;58.84
8039;BME280;4062;49.844;8.120;2023-10-31T10:16:36;98165.38;;;16.02;58.81
8039;BME280;4062;49.844;8.120;2023-10-31T10:18:37;98165.38;;;16.02;58.90
8039;BME280;4062;49.844;8.120;2023-10-31T10:20:55;98167.19;;;16.02;59.10
8039;BME280;4062;49.844;8.120;2023-10-31T10:23:03;98170.72;;;16.02;58.91
8039;BME280;4062;49.844;8.120;2023-10-31T10:25:07;98180.50;;;16.02;58.88
8039;BME280;4062;49.844;8.120;2023-10-31T10:27:08;98180.50;;;16.02;58.84
8039;BME280;4062;49.844;8.120;2023-10-31T10:29:10;98192.88;;;16.03;58.83
8039;BME280;4062;49.844;8.120;2023-10-31T10:31:14;98192.88;;;16.03;58.78
8039;BME280;4062;49.844;8.120;2023-10-31T10:33:16;98199.91;;;16.04;58.91
8039;BME280;4062;49.844;8.120;2023-10-31T10:35:18;98196.50;;;16.02;58.83
8039;BME280;4062;49.844;8.120;2023-10-31T10:37:20;98195.53;;;16.03;58.86
8039;BME280;4062;49.844;8.120;2023-10-31T10:39:22;98200.88;;;16.03;58.93
8039;BME280;4062;49.844;8.120;2023-10-31T10:41:26;98187.66;;;16.01;58.79
8039;BME280;4062;49.844;8.120;2023-10-31T10:43:29;98191.16;;;16.02;58.80
8039;BME280;4062;49.844;8.120;2023-10-31T10:45:33;98190.31;;;16.01;58.81
8039;BME280;4062;49.844;8.120;2023-10-31T10:47:35;98190.22;;;16.03;58.95
8039;BME280;4062;49.844;8.120;2023-10-31T10:49:42;98191.16;;;16.02;58.91
8039;BME280;4062;49.844;8.120;2023-10-31T10:51:44;98186.69;;;16.02;58.85
8039;BME280;4062;49.844;8.120;2023-10-31T10:53:55;98183.09;;;16.03;58.75
8039;BME280;4062;49.844;8.120;2023-10-31T10:56:11;98183.09;;;16.03;58.93
8039;BME280;4062;49.844;8.120;2023-10-31T11:00:36;98180.41;;;16.03;58.93
8039;BME280;4062;49.844;8.120;2023-10-31T11:02:43;98179.56;;;16.03;58.80
8039;BME280;4062;49.844;8.120;2023-10-31T11:04:44;98173.38;;;16.02;58.81
8039;BME280;4062;49.844;8.120;2023-10-31T11:06:47;98175.94;;;16.04;58.86